sensor_id;sensor_type;location;lat;lon;timestamp;P1;P2;P0
46885;PMS5003;32622;48.202;11.326;2023-04-24T00:01:45;16;16;
46885;PMS5003;32622;48.202;11.326;2023-04-24T00:03:49;16;16;
46885;PMS5003;32622;48.202;11.326;2023-04-24T00:05:52;16;16;
46885;PMS5003;32622;48.202;11.326;2023-04-24T00:07:55;16;16;
46885;PMS5003;32622;48.202;11.326;2023-04-24T00:09:59;15;15;
46885;PMS5003;32622;48.202;11.326;2023-04-24T00:12:03;15;15;
46885;PMS5003;32622;48.202;11.326;2023-04-24T00:14:06;15;15;
46885;PMS5003;32622;48.202;11.326;2023-04-24T00:16:10;14;14;
46885;PMS5003;32622;48.202;11.326;2023-04-24T00:18:13;14;14;
46885;PMS5003;32622;48.202;11.326;2023-04-24T00:20:16;14;14;
46885;PMS5003;32622;48.202;11.326;2023-04-24T00:22:20;15;15;
46885;PMS5003;32622;48.202;11.326;2023-04-24T00:24:23;15;15;
46885;PMS5003;32622;48.202;11.326;2023-04-24T00:26:27;15;15;
46885;PMS5003;32622;48.202;11.326;2023-04-24T00:28:30;16;15;
46885;PMS5003;32622;48.202;11.326;2023-04-24T00:30:34;16;15;
46885;PMS5003;32622;48.202;11.326;2023-04-24T00:32:37;16;15;
46885;PMS5003;32622;48.202;11.326;2023-04-24T00:34:41;16;14;
46885;PMS5003;32622;48.202;11.326;2023-04-24T00:36:44;16;14;
46885;PMS5003;32622;48.202;11.326;2023-04-24T00:38:47;16;14;
46885;PMS5003;32622;48.202;11.326;2023-04-24T00:40:51;17;13;
46885;PMS5003;32622;48.202;11.326;2023-04-24T00:42:54;17;13;
46885;PMS5003;32622;48.202;11.326;2023-04-24T00:44:57;17;13;
46885;PMS5003;32622;48.202;11.326;2023-04-24T00:47:03;18;14;
46885;PMS5003;32622;48.202;11.326;2023-04-24T00:49:06;18;14;
46885;PMS5003;32622;48.202;11.326;2023-04-24T00:51:10;18;14;
46885;PMS5003;32622;48.202;11.326;2023-04-24T00:53:13;19;16;
46885;PMS5003;32622;48.202;11.326;2023-04-24T00:55:17;19;16;
46885;PMS5003;32622;48.202;11.326;2023-04-24T00:57:20;19;16;
46885;PMS5003;32622;48.202;11.326;2023-04-24T00:59:24;19;16;
46885;PMS5003;32622;48.202;11.326;2023-04-24T01:01:28;19;16;
46885;PMS5003;32622;48.202;11.326;2023-04-24T01:03:31;19;16;
46885;PMS5003;32622;48.202;11.326;2023-04-24T01:05:35;20;16;
46885;PMS5003;32622;48.202;11.326;2023-04-24T01:07:39;20;16;
46885;PMS5003;32622;48.202;11.326;2023-04-24T01:09:44;20;16;
46885;PMS5003;32622;48.202;11.326;2023-04-24T01:11:49;20;15;
46885;PMS5003;32622;48.202;11.326;2023-04-24T01:13:53;20;15;
46885;PMS5003;32622;48.202;11.326;2023-04-24T01:15:57;20;15;
46885;PMS5003;32622;48.202;11.326;2023-04-24T01:18:00;21;15;
46885;PMS5003;32622;48.202;11.326;2023-04-24T01:20:04;21;15;
46885;PMS5003;32622;48.202;11.326;2023-04-24T01:22:08;21;15;
46885;PMS5003;32622;48.202;11.326;2023-04-24T01:24:13;21;15;
46885;PMS5003;32622;48.202;11.326;2023-04-24T01:26:17;21;15;
46885;PMS5003;32622;48.202;11.326;2023-04-24T01:28:21;21;15;
46885;PMS5003;32622;48.202;11.326;2023-04-24T01:30:24;22;17;
46885;PMS5003;32622;48.202;11.326;2023-04-24T01:32:28;20;16;
46885;PMS5003;32622;48.202;11.326;2023-04-24T01:34:31;19;16;
46885;PMS5003;32622;48.202;11.326;2023-04-24T01:36:35;18;16;
46885;PMS5003;32622;48.202;11.326;2023-04-24T01:38:40;19;16;
46885;PMS5003;32622;48.202;11.326;2023-04-24T01:40:43;21;17;
46885;PMS5003;32622;48.202;11.326;2023-04-24T01:42:47;21;18;
46885;PMS5003;32622;48.202;11.326;2023-04-24T01:44:50;23;20;
46885;PMS5003;32622;48.202;11.326;2023-04-24T01:46:54;22;21;
46885;PMS5003;32622;48.202;11.326;2023-04-24T01:48:58;23;21;
46885;PMS5003;32622;48.202;11.326;2023-04-24T01:51:03;22;21;
46885;PMS5003;32622;48.202;11.326;2023-04-24T01:53:06;24;23;
46885;PMS5003;32622;48.202;11.326;2023-04-24T01:55:10;24;23;
46885;PMS5003;32622;48.202;11.326;2023-04-24T01:57:13;24;23;
46885;PMS5003;32622;48.202;11.326;2023-04-24T01:59:18;24;23;
46885;PMS5003;32622;48.202;11.326;2023-04-24T02:01:24;24;23;
46885;PMS5003;32622;48.202;11.326;2023-04-24T02:03:28;24;23;
46885;PMS5003;32622;48.202;11.326;2023-04-24T02:05:31;23;22;
46885;PMS5003;32622;48.202;11.326;2023-04-24T02:07:35;22;22;
46885;PMS5003;32622;48.202;11.326;2023-04-24T02:09:38;22;22;
46885;PMS5003;32622;48.202;11.326;2023-04-24T02:11:41;22;22;
46885;PMS5003;32622;48.202;11.326;2023-04-24T02:13:45;21;21;
46885;PMS5003;32622;48.202;11.326;2023-04-24T02:15:48;21;21;
46885;PMS5003;32622;48.202;11.326;2023-04-24T02:17:51;21;21;
46885;PMS5003;32622;48.202;11.326;2023-04-24T02:19:55;20;20;
46885;PMS5003;32622;48.202;11.326;2023-04-24T02:21:58;20;20;
46885;PMS5003;32622;48.202;11.326;2023-04-24T02:24:01;20;20;
46885;PMS5003;32622;48.202;11.326;2023-04-24T02:26:05;22;20;
46885;PMS5003;32622;48.202;11.326;2023-04-24T02:28:09;22;20;
46885;PMS5003;32622;48.202;11.326;2023-04-24T02:30:12;22;20;
46885;PMS5003;32622;48.202;11.326;2023-04-24T02:32:16;21;20;
46885;PMS5003;32622;48.202;11.326;2023-04-24T02:34:19;21;20;
46885;PMS5003;32622;48.202;11.326;2023-04-24T02:36:23;21;20;
46885;PMS5003;32622;48.202;11.326;2023-04-24T02:38:26;21;20;
46885;PMS5003;32622;48.202;11.326;2023-04-24T02:40:30;20;19;
46885;PMS5003;32622;48.202;11.326;2023-04-24T02:42:34;20;19;
46885;PMS5003;32622;48.202;11.326;2023-04-24T02:44:37;19;18;
46885;PMS5003;32622;48.202;11.326;2023-04-24T02:46:41;19;18;
46885;PMS5003;32622;48.202;11.326;2023-04-24T02:48:44;20;19;
46885;PMS5003;32622;48.202;11.326;2023-04-24T02:50:48;19;18;
46885;PMS5003;32622;48.202;11.326;2023-04-24T02:52:51;19;18;
46885;PMS5003;32622;48.202;11.326;2023-04-24T02:54:54;19;18;
46885;PMS5003;32622;48.202;11.326;2023-04-24T02:56:58;19;18;
46885;PMS5003;32622;48.202;11.326;2023-04-24T02:59:01;19;18;
46885;PMS5003;32622;48.202;11.326;2023-04-24T03:01:04;19;18;
46885;PMS5003;32622;48.202;11.326;2023-04-24T03:03:07;19;18;
46885;PMS5003;32622;48.202;11.326;2023-04-24T03:05:11;19;18;
46885;PMS5003;32622;48.202;11.326;2023-04-24T03:07:14;19;18;
46885;PMS5003;32622;48.202;11.326;2023-04-24T03:09:18;19;18;
46885;PMS5003;32622;48.202;11.326;2023-04-24T03:11:21;19;18;
46885;PMS5003;32622;48.202;11.326;2023-04-24T03:13:24;19;18;
46885;PMS5003;32622;48.202;11.326;2023-04-24T03:15:28;22;18;
46885;PMS5003;32622;48.202;11.326;2023-04-24T03:17:32;22;18;
46885;PMS5003;32622;48.202;11.326;2023-04-24T03:19:35;22;18;
46885;PMS5003;32622;48.202;11.326;2023-04-24T03:21:38;24;19;
46885;PMS5003;32622;48.202;11.326;2023-04-24T03:23:42;24;19;
46885;PMS5003;32622;48.202;11.326;2023-04-24T03:25:45;24;19;
46885;PMS5003;32622;48.202;11.326;2023-04-24T03:27:49;22;18;
46885;PMS5003;32622;48.202;11.326;2023-04-24T03:29:52;22;18;
46885;PMS5003;32622;48.202;11.326;2023-04-24T03:31:56;22;18;
46885;PMS5003;32622;48.202;11.326;2023-04-24T03:33:59;22;18;
46885;PMS5003;32622;48.202;11.326;2023-04-24T03:36:03;22;18;
46885;PMS5003;32622;48.202;11.326;2023-04-24T03:38:06;22;18;
46885;PMS5003;32622;48.202;11.326;2023-04-24T03:40:10;22;18;
46885;PMS5003;32622;48.202;11.326;2023-04-24T03:42:14;22;18;
46885;PMS5003;32622;48.202;11.326;2023-04-24T03:44:17;22;18;
46885;PMS5003;32622;48.202;11.326;2023-04-24T03:46:20;22;18;
46885;PMS5003;32622;48.202;11.326;2023-04-24T03:48:23;22;18;
46885;PMS5003;32622;48.202;11.326;2023-04-24T03:50:27;22;18;
46885;PMS5003;32622;48.202;11.326;2023-04-24T03:52:31;23;17;
46885;PMS5003;32622;48.202;11.326;2023-04-24T03:54:34;23;17;
46885;PMS5003;32622;48.202;11.326;2023-04-24T03:56:37;23;17;
46885;PMS5003;32622;48.202;11.326;2023-04-24T03:58:40;24;18;
46885;PMS5003;32622;48.202;11.326;2023-04-24T04:00:44;24;18;
46885;PMS5003;32622;48.202;11.326;2023-04-24T04:02:47;24;18;
46885;PMS5003;32622;48.202;11.326;2023-04-24T04:04:51;25;18;
46885;PMS5003;32622;48.202;11.326;2023-04-24T04:06:54;25;18;
46885;PMS5003;32622;48.202;11.326;2023-04-24T04:08:57;25;18;
46885;PMS5003;32622;48.202;11.326;2023-04-24T04:11:01;24;17;
46885;PMS5003;32622;48.202;11.326;2023-04-24T04:13:04;24;17;
46885;PMS5003;32622;48.202;11.326;2023-04-24T04:15:08;24;17;
46885;PMS5003;32622;48.202;11.326;2023-04-24T04:17:12;21;18;
46885;PMS5003;32622;48.202;11.326;2023-04-24T04:19:15;21;18;
46885;PMS5003;32622;48.202;11.326;2023-04-24T04:21:18;21;18;
46885;PMS5003;32622;48.202;11.326;2023-04-24T04:23:22;19;17;
46885;PMS5003;32622;48.202;11.326;2023-04-24T04:25:25;19;17;
46885;PMS5003;32622;48.202;11.326;2023-04-24T04:27:29;19;17;
46885;PMS5003;32622;48.202;11.326;2023-04-24T04:29:33;18;16;
46885;PMS5003;32622;48.202;11.326;2023-04-24T04:31:36;18;16;
46885;PMS5003;32622;48.202;11.326;2023-04-24T04:33:39;18;16;
46885;PMS5003;32622;48.202;11.326;2023-04-24T04:35:43;19;17;
46885;PMS5003;32622;48.202;11.326;2023-04-24T04:37:46;19;17;
46885;PMS5003;32622;48.202;11.326;2023-04-24T04:39:50;19;17;
46885;PMS5003;32622;48.202;11.326;2023-04-24T04:41:54;19;17;
46885;PMS5003;32622;48.202;11.326;2023-04-24T04:43:58;19;17;
46885;PMS5003;32622;48.202;11.326;2023-04-24T04:46:11;19;17;
46885;PMS5003;32622;48.202;11.326;2023-04-24T04:48:15;18;15;
46885;PMS5003;32622;48.202;11.326;2023-04-24T04:50:18;18;15;
46885;PMS5003;32622;48.202;11.326;2023-04-24T04:52:21;18;15;
46885;PMS5003;32622;48.202;11.326;2023-04-24T04:54:24;17;16;
46885;PMS5003;32622;48.202;11.326;2023-04-24T04:56:28;16;15;
46885;PMS5003;32622;48.202;11.326;2023-04-24T04:58:32;16;15;
46885;PMS5003;32622;48.202;11.326;2023-04-24T05:00:36;14;14;
46885;PMS5003;32622;48.202;11.326;2023-04-24T05:02:39;14;14;
46885;PMS5003;32622;48.202;11.326;2023-04-24T05:04:42;14;14;
46885;PMS5003;32622;48.202;11.326;2023-04-24T05:06:46;14;14;
46885;PMS5003;32622;48.202;11.326;2023-04-24T05:08:49;14;14;
46885;PMS5003;32622;48.202;11.326;2023-04-24T05:10:52;15;15;
46885;PMS5003;32622;48.202;11.326;2023-04-24T05:12:56;15;15;
46885;PMS5003;32622;48.202;11.326;2023-04-24T05:14:59;15;15;
46885;PMS5003;32622;48.202;11.326;2023-04-24T05:17:03;14;14;
46885;PMS5003;32622;48.202;11.326;2023-04-24T05:19:06;15;13;
46885;PMS5003;32622;48.202;11.326;2023-04-24T05:21:09;15;13;
46885;PMS5003;32622;48.202;11.326;2023-04-24T05:23:13;15;13;
46885;PMS5003;32622;48.202;11.326;2023-04-24T05:25:17;16;14;
46885;PMS5003;32622;48.202;11.326;2023-04-24T05:27:28;16;14;
46885;PMS5003;32622;48.202;11.326;2023-04-24T05:29:32;16;14;
46885;PMS5003;32622;48.202;11.326;2023-04-24T05:31:35;18;17;
46885;PMS5003;32622;48.202;11.326;2023-04-24T05:33:38;18;17;
46885;PMS5003;32622;48.202;11.326;2023-04-24T05:35:41;18;17;
46885;PMS5003;32622;48.202;11.326;2023-04-24T05:37:44;16;15;
46885;PMS5003;32622;48.202;11.326;2023-04-24T05:39:48;16;15;
46885;PMS5003;32622;48.202;11.326;2023-04-24T05:41:51;16;15;
46885;PMS5003;32622;48.202;11.326;2023-04-24T05:43:54;16;15;
46885;PMS5003;32622;48.202;11.326;2023-04-24T05:45:57;16;15;
46885;PMS5003;32622;48.202;11.326;2023-04-24T05:48:01;16;15;
46885;PMS5003;32622;48.202;11.326;2023-04-24T05:50:05;18;16;
46885;PMS5003;32622;48.202;11.326;2023-04-24T05:52:09;18;16;
46885;PMS5003;32622;48.202;11.326;2023-04-24T05:54:12;18;16;
46885;PMS5003;32622;48.202;11.326;2023-04-24T05:56:15;17;16;
46885;PMS5003;32622;48.202;11.326;2023-04-24T05:58:19;17;16;
46885;PMS5003;32622;48.202;11.326;2023-04-24T06:00:23;17;16;
46885;PMS5003;32622;48.202;11.326;2023-04-24T06:02:26;17;16;
46885;PMS5003;32622;48.202;11.326;2023-04-24T06:04:30;17;16;
46885;PMS5003;32622;48.202;11.326;2023-04-24T06:06:34;17;16;
46885;PMS5003;32622;48.202;11.326;2023-04-24T06:08:38;19;17;
46885;PMS5003;32622;48.202;11.326;2023-04-24T06:10:41;19;17;
46885;PMS5003;32622;48.202;11.326;2023-04-24T06:12:44;19;17;
46885;PMS5003;32622;48.202;11.326;2023-04-24T06:14:48;20;18;
46885;PMS5003;32622;48.202;11.326;2023-04-24T06:16:51;20;18;
46885;PMS5003;32622;48.202;11.326;2023-04-24T06:18:54;20;18;
46885;PMS5003;32622;48.202;11.326;2023-04-24T06:20:58;19;19;
46885;PMS5003;32622;48.202;11.326;2023-04-24T06:23:01;19;19;
46885;PMS5003;32622;48.202;11.326;2023-04-24T06:25:05;19;19;
46885;PMS5003;32622;48.202;11.326;2023-04-24T06:27:09;18;18;
46885;PMS5003;32622;48.202;11.326;2023-04-24T06:29:12;18;18;
46885;PMS5003;32622;48.202;11.326;2023-04-24T06:31:16;18;18;
46885;PMS5003;32622;48.202;11.326;2023-04-24T06:33:19;18;18;
46885;PMS5003;32622;48.202;11.326;2023-04-24T06:35:22;18;18;
46885;PMS5003;32622;48.202;11.326;2023-04-24T06:37:25;18;18;
46885;PMS5003;32622;48.202;11.326;2023-04-24T06:39:29;18;18;
46885;PMS5003;32622;48.202;11.326;2023-04-24T06:41:33;18;18;
46885;PMS5003;32622;48.202;11.326;2023-04-24T06:43:36;17;17;
46885;PMS5003;32622;48.202;11.326;2023-04-24T06:45:39;17;17;
46885;PMS5003;32622;48.202;11.326;2023-04-24T06:47:43;17;17;
46885;PMS5003;32622;48.202;11.326;2023-04-24T06:49:46;18;18;
46885;PMS5003;32622;48.202;11.326;2023-04-24T06:51:48;18;18;
46885;PMS5003;32622;48.202;11.326;2023-04-24T06:53:51;18;18;
46885;PMS5003;32622;48.202;11.326;2023-04-24T06:55:55;18;18;
46885;PMS5003;32622;48.202;11.326;2023-04-24T06:57:59;18;18;
46885;PMS5003;32622;48.202;11.326;2023-04-24T07:00:03;18;18;
46885;PMS5003;32622;48.202;11.326;2023-04-24T07:02:07;18;18;
46885;PMS5003;32622;48.202;11.326;2023-04-24T07:04:11;18;18;
46885;PMS5003;32622;48.202;11.326;2023-04-24T07:06:14;18;18;
46885;PMS5003;32622;48.202;11.326;2023-04-24T07:08:17;18;18;
46885;PMS5003;32622;48.202;11.326;2023-04-24T07:10:21;17;17;
46885;PMS5003;32622;48.202;11.326;2023-04-24T07:12:24;17;17;
46885;PMS5003;32622;48.202;11.326;2023-04-24T07:14:28;17;17;
46885;PMS5003;32622;48.202;11.326;2023-04-24T07:16:32;17;17;
46885;PMS5003;32622;48.202;11.326;2023-04-24T07:18:35;17;17;
46885;PMS5003;32622;48.202;11.326;2023-04-24T07:20:38;17;17;
46885;PMS5003;32622;48.202;11.326;2023-04-24T07:22:43;16;16;
46885;PMS5003;32622;48.202;11.326;2023-04-24T07:24:46;16;16;
46885;PMS5003;32622;48.202;11.326;2023-04-24T07:26:51;16;16;
46885;PMS5003;32622;48.202;11.326;2023-04-24T07:29:00;17;17;
46885;PMS5003;32622;48.202;11.326;2023-04-24T07:31:49;16;16;
46885;PMS5003;32622;48.202;11.326;2023-04-24T07:33:55;15;15;
46885;PMS5003;32622;48.202;11.326;2023-04-24T07:36:20;15;15;
46885;PMS5003;32622;48.202;11.326;2023-04-24T07:38:24;17;16;
46885;PMS5003;32622;48.202;11.326;2023-04-24T07:40:27;17;16;
46885;PMS5003;32622;48.202;11.326;2023-04-24T07:42:30;17;16;
46885;PMS5003;32622;48.202;11.326;2023-04-24T07:44:33;16;15;
46885;PMS5003;32622;48.202;11.326;2023-04-24T07:46:37;16;15;
46885;PMS5003;32622;48.202;11.326;2023-04-24T07:48:41;16;15;
46885;PMS5003;32622;48.202;11.326;2023-04-24T07:50:44;17;16;
46885;PMS5003;32622;48.202;11.326;2023-04-24T07:52:48;17;16;
46885;PMS5003;32622;48.202;11.326;2023-04-24T07:54:56;17;16;
46885;PMS5003;32622;48.202;11.326;2023-04-24T07:56:59;18;16;
46885;PMS5003;32622;48.202;11.326;2023-04-24T07:59:03;17;15;
46885;PMS5003;32622;48.202;11.326;2023-04-24T08:01:07;17;15;
46885;PMS5003;32622;48.202;11.326;2023-04-24T08:03:10;17;15;
46885;PMS5003;32622;48.202;11.326;2023-04-24T08:05:14;18;16;
46885;PMS5003;32622;48.202;11.326;2023-04-24T08:07:17;18;16;
46885;PMS5003;32622;48.202;11.326;2023-04-24T08:09:20;19;17;
46885;PMS5003;32622;48.202;11.326;2023-04-24T08:11:24;19;17;
46885;PMS5003;32622;48.202;11.326;2023-04-24T08:13:28;19;17;
46885;PMS5003;32622;48.202;11.326;2023-04-24T08:15:32;19;17;
46885;PMS5003;32622;48.202;11.326;2023-04-24T08:17:36;19;17;
46885;PMS5003;32622;48.202;11.326;2023-04-24T08:19:39;18;16;
46885;PMS5003;32622;48.202;11.326;2023-04-24T08:21:43;19;17;
46885;PMS5003;32622;48.202;11.326;2023-04-24T08:23:46;19;17;
46885;PMS5003;32622;48.202;11.326;2023-04-24T08:25:49;20;18;
46885;PMS5003;32622;48.202;11.326;2023-04-24T08:27:53;20;17;
46885;PMS5003;32622;48.202;11.326;2023-04-24T08:29:57;20;17;
46885;PMS5003;32622;48.202;11.326;2023-04-24T08:32:00;20;17;
46885;PMS5003;32622;48.202;11.326;2023-04-24T08:34:04;19;16;
46885;PMS5003;32622;48.202;11.326;2023-04-24T08:36:07;19;16;
46885;PMS5003;32622;48.202;11.326;2023-04-24T08:38:10;19;16;
46885;PMS5003;32622;48.202;11.326;2023-04-24T08:40:15;19;16;
46885;PMS5003;32622;48.202;11.326;2023-04-24T08:42:19;19;16;
46885;PMS5003;32622;48.202;11.326;2023-04-24T08:44:23;19;16;
46885;PMS5003;32622;48.202;11.326;2023-04-24T08:46:26;20;17;
46885;PMS5003;32622;48.202;11.326;2023-04-24T08:48:31;19;16;
46885;PMS5003;32622;48.202;11.326;2023-04-24T08:50:35;19;16;
46885;PMS5003;32622;48.202;11.326;2023-04-24T08:52:39;19;16;
46885;PMS5003;32622;48.202;11.326;2023-04-24T08:54:44;19;16;
46885;PMS5003;32622;48.202;11.326;2023-04-24T08:56:49;19;16;
46885;PMS5003;32622;48.202;11.326;2023-04-24T08:58:55;17;15;
46885;PMS5003;32622;48.202;11.326;2023-04-24T09:00:59;17;15;
46885;PMS5003;32622;48.202;11.326;2023-04-24T09:03:04;17;15;
46885;PMS5003;32622;48.202;11.326;2023-04-24T09:05:08;17;15;
46885;PMS5003;32622;48.202;11.326;2023-04-24T09:07:13;17;15;
46885;PMS5003;32622;48.202;11.326;2023-04-24T09:09:18;17;15;
46885;PMS5003;32622;48.202;11.326;2023-04-24T09:11:22;17;14;
46885;PMS5003;32622;48.202;11.326;2023-04-24T09:13:27;17;14;
46885;PMS5003;32622;48.202;11.326;2023-04-24T09:15:32;17;14;
46885;PMS5003;32622;48.202;11.326;2023-04-24T09:17:35;18;15;
46885;PMS5003;32622;48.202;11.326;2023-04-24T09:19:39;18;15;
46885;PMS5003;32622;48.202;11.326;2023-04-24T09:21:45;18;15;
46885;PMS5003;32622;48.202;11.326;2023-04-24T09:23:57;19;15;
46885;PMS5003;32622;48.202;11.326;2023-04-24T09:26:02;19;15;
46885;PMS5003;32622;48.202;11.326;2023-04-24T09:28:06;19;15;
46885;PMS5003;32622;48.202;11.326;2023-04-24T09:30:10;18;15;
46885;PMS5003;32622;48.202;11.326;2023-04-24T09:32:21;18;15;
46885;PMS5003;32622;48.202;11.326;2023-04-24T09:34:26;18;15;
46885;PMS5003;32622;48.202;11.326;2023-04-24T09:36:30;18;15;
46885;PMS5003;32622;48.202;11.326;2023-04-24T09:38:35;19;16;
46885;PMS5003;32622;48.202;11.326;2023-04-24T09:40:40;19;16;
46885;PMS5003;32622;48.202;11.326;2023-04-24T09:42:44;17;16;
46885;PMS5003;32622;48.202;11.326;2023-04-24T09:44:48;17;16;
46885;PMS5003;32622;48.202;11.326;2023-04-24T09:46:52;17;16;
46885;PMS5003;32622;48.202;11.326;2023-04-24T09:48:56;17;16;
46885;PMS5003;32622;48.202;11.326;2023-04-24T09:50:59;17;16;
46885;PMS5003;32622;48.202;11.326;2023-04-24T09:53:03;16;15;
46885;PMS5003;32622;48.202;11.326;2023-04-24T09:55:10;16;15;
46885;PMS5003;32622;48.202;11.326;2023-04-24T09:57:14;16;15;
46885;PMS5003;32622;48.202;11.326;2023-04-24T09:59:17;16;15;
46885;PMS5003;32622;48.202;11.326;2023-04-24T10:01:29;17;16;
46885;PMS5003;32622;48.202;11.326;2023-04-24T10:03:32;17;16;
46885;PMS5003;32622;48.202;11.326;2023-04-24T10:05:36;17;16;
46885;PMS5003;32622;48.202;11.326;2023-04-24T10:07:39;18;16;
46885;PMS5003;32622;48.202;11.326;2023-04-24T10:09:42;18;16;
46885;PMS5003;32622;48.202;11.326;2023-04-24T10:11:45;18;16;
46885;PMS5003;32622;48.202;11.326;2023-04-24T10:13:49;18;17;
46885;PMS5003;32622;48.202;11.326;2023-04-24T10:15:52;18;17;
46885;PMS5003;32622;48.202;11.326;2023-04-24T10:17:57;18;17;
46885;PMS5003;32622;48.202;11.326;2023-04-24T10:20:01;17;17;
46885;PMS5003;32622;48.202;11.326;2023-04-24T10:22:04;17;17;
46885;PMS5003;32622;48.202;11.326;2023-04-24T10:24:08;17;17;
46885;PMS5003;32622;48.202;11.326;2023-04-24T10:26:11;16;16;
46885;PMS5003;32622;48.202;11.326;2023-04-24T10:28:15;17;17;
46885;PMS5003;32622;48.202;11.326;2023-04-24T10:30:19;17;17;
46885;PMS5003;32622;48.202;11.326;2023-04-24T10:32:22;16;16;
46885;PMS5003;32622;48.202;11.326;2023-04-24T10:34:24;16;16;
46885;PMS5003;32622;48.202;11.326;2023-04-24T10:36:27;16;16;
46885;PMS5003;32622;48.202;11.326;2023-04-24T10:38:31;17;16;
46885;PMS5003;32622;48.202;11.326;2023-04-24T10:40:35;17;16;
46885;PMS5003;32622;48.202;11.326;2023-04-24T10:42:39;16;15;
46885;PMS5003;32622;48.202;11.326;2023-04-24T10:44:42;18;17;
46885;PMS5003;32622;48.202;11.326;2023-04-24T10:46:54;18;16;
46885;PMS5003;32622;48.202;11.326;2023-04-24T10:48:57;19;17;
46885;PMS5003;32622;48.202;11.326;2023-04-24T10:51:00;20;18;
46885;PMS5003;32622;48.202;11.326;2023-04-24T10:53:05;21;20;
46885;PMS5003;32622;48.202;11.326;2023-04-24T10:55:09;20;19;
46885;PMS5003;32622;48.202;11.326;2023-04-24T10:57:29;19;18;
46885;PMS5003;32622;48.202;11.326;2023-04-24T10:59:34;19;18;
46885;PMS5003;32622;48.202;11.326;2023-04-24T11:01:38;21;19;
46885;PMS5003;32622;48.202;11.326;2023-04-24T11:03:41;21;21;
46885;PMS5003;32622;48.202;11.326;2023-04-24T11:05:57;20;20;
46885;PMS5003;32622;48.202;11.326;2023-04-24T11:08:21;20;20;
46885;PMS5003;32622;48.202;11.326;2023-04-24T11:10:27;20;20;
46885;PMS5003;32622;48.202;11.326;2023-04-24T11:12:31;20;20;
46885;PMS5003;32622;48.202;11.326;2023-04-24T11:17:08;18;18;
46885;PMS5003;32622;48.202;11.326;2023-04-24T11:19:28;18;18;
46885;PMS5003;32622;48.202;11.326;2023-04-24T11:21:31;18;18;
46885;PMS5003;32622;48.202;11.326;2023-04-24T11:23:40;18;18;
46885;PMS5003;32622;48.202;11.326;2023-04-24T11:25:43;19;19;
46885;PMS5003;32622;48.202;11.326;2023-04-24T11:27:46;19;19;
46885;PMS5003;32622;48.202;11.326;2023-04-24T11:29:49;18;18;
46885;PMS5003;32622;48.202;11.326;2023-04-24T11:32:11;17;17;
46885;PMS5003;32622;48.202;11.326;2023-04-24T11:34:18;17;17;
46885;PMS5003;32622;48.202;11.326;2023-04-24T11:36:20;17;17;
46885;PMS5003;32622;48.202;11.326;2023-04-24T11:38:23;17;17;
46885;PMS5003;32622;48.202;11.326;2023-04-24T11:40:26;18;18;
46885;PMS5003;32622;48.202;11.326;2023-04-24T11:42:33;19;19;
46885;PMS5003;32622;48.202;11.326;2023-04-24T11:44:36;19;19;
46885;PMS5003;32622;48.202;11.326;2023-04-24T11:46:40;18;18;
46885;PMS5003;32622;48.202;11.326;2023-04-24T11:48:44;17;17;
46885;PMS5003;32622;48.202;11.326;2023-04-24T11:50:47;17;17;
46885;PMS5003;32622;48.202;11.326;2023-04-24T11:52:50;17;17;
46885;PMS5003;32622;48.202;11.326;2023-04-24T11:54:53;19;19;
46885;PMS5003;32622;48.202;11.326;2023-04-24T11:56:56;19;19;
46885;PMS5003;32622;48.202;11.326;2023-04-24T11:58:59;19;19;
46885;PMS5003;32622;48.202;11.326;2023-04-24T12:01:06;20;20;
46885;PMS5003;32622;48.202;11.326;2023-04-24T12:03:09;20;20;
46885;PMS5003;32622;48.202;11.326;2023-04-24T12:05:19;20;20;
46885;PMS5003;32622;48.202;11.326;2023-04-24T12:07:22;19;19;
46885;PMS5003;32622;48.202;11.326;2023-04-24T12:09:25;18;18;
46885;PMS5003;32622;48.202;11.326;2023-04-24T12:11:28;18;18;
46885;PMS5003;32622;48.202;11.326;2023-04-24T12:13:30;19;19;
46885;PMS5003;32622;48.202;11.326;2023-04-24T12:15:33;20;20;
46885;PMS5003;32622;48.202;11.326;2023-04-24T12:17:36;20;20;
46885;PMS5003;32622;48.202;11.326;2023-04-24T12:19:45;20;19;
46885;PMS5003;32622;48.202;11.326;2023-04-24T12:22:05;20;19;
46885;PMS5003;32622;48.202;11.326;2023-04-24T12:24:08;20;19;
46885;PMS5003;32622;48.202;11.326;2023-04-24T12:26:10;19;18;
46885;PMS5003;32622;48.202;11.326;2023-04-24T12:28:14;19;18;
46885;PMS5003;32622;48.202;11.326;2023-04-24T12:30:16;19;18;
46885;PMS5003;32622;48.202;11.326;2023-04-24T12:32:19;20;18;
46885;PMS5003;32622;48.202;11.326;2023-04-24T12:34:22;20;18;
46885;PMS5003;32622;48.202;11.326;2023-04-24T12:36:27;20;18;
46885;PMS5003;32622;48.202;11.326;2023-04-24T12:38:30;20;19;
46885;PMS5003;32622;48.202;11.326;2023-04-24T12:40:32;20;19;
46885;PMS5003;32622;48.202;11.326;2023-04-24T12:42:36;20;19;
46885;PMS5003;32622;48.202;11.326;2023-04-24T12:44:44;20;19;
46885;PMS5003;32622;48.202;11.326;2023-04-24T12:46:49;20;19;
46885;PMS5003;32622;48.202;11.326;2023-04-24T12:48:52;20;19;
46885;PMS5003;32622;48.202;11.326;2023-04-24T12:50:54;20;19;
46885;PMS5003;32622;48.202;11.326;2023-04-24T12:52:58;20;19;
46885;PMS5003;32622;48.202;11.326;2023-04-24T12:55:01;20;19;
46885;PMS5003;32622;48.202;11.326;2023-04-24T12:57:05;19;18;
46885;PMS5003;32622;48.202;11.326;2023-04-24T12:59:07;20;19;
46885;PMS5003;32622;48.202;11.326;2023-04-24T13:01:10;20;19;
46885;PMS5003;32622;48.202;11.326;2023-04-24T13:03:13;19;18;
46885;PMS5003;32622;48.202;11.326;2023-04-24T13:05:16;19;18;
46885;PMS5003;32622;48.202;11.326;2023-04-24T13:07:19;19;18;
46885;PMS5003;32622;48.202;11.326;2023-04-24T13:09:22;19;17;
46885;PMS5003;32622;48.202;11.326;2023-04-24T13:11:24;19;17;
46885;PMS5003;32622;48.202;11.326;2023-04-24T13:13:28;18;16;
46885;PMS5003;32622;48.202;11.326;2023-04-24T13:15:30;17;16;
46885;PMS5003;32622;48.202;11.326;2023-04-24T13:17:33;17;16;
46885;PMS5003;32622;48.202;11.326;2023-04-24T13:19:36;18;17;
46885;PMS5003;32622;48.202;11.326;2023-04-24T13:21:40;18;18;
46885;PMS5003;32622;48.202;11.326;2023-04-24T13:23:42;18;18;
46885;PMS5003;32622;48.202;11.326;2023-04-24T13:25:45;18;18;
46885;PMS5003;32622;48.202;11.326;2023-04-24T13:27:48;18;18;
46885;PMS5003;32622;48.202;11.326;2023-04-24T13:29:50;18;18;
46885;PMS5003;32622;48.202;11.326;2023-04-24T13:31:54;18;18;
46885;PMS5003;32622;48.202;11.326;2023-04-24T13:33:56;17;17;